Time;durP1;ratioP1;P1;durP2;ratioP2;P2;SDS_P1;SDS_P2;PMS_P1;PMS_P2;Temp;Humidity;BMP_temperature;BMP_pressure;BME280_temperature;BME280_humidity;BME280_pressure;Samples;Min_cycle;Max_cycle;Signal;HPM_P1;HPM_P2
2024/04/22 00:02:17;;;;;;;;;;;;;;;6.86;100.00;102668.00;5393330;26;19961;-86
2024/04/22 00:04:42;;;;;;;;;;;;;;;6.70;100.00;102654.81;5451835;26;19970;-87
2024/04/22 00:07:10;;;;;;;;;;;;;;;6.61;100.00;102663.44;5452942;26;20362;-87
2024/04/22 00:09:36;;;;;;;;;;;;;;;6.51;100.00;102668.56;5452829;26;19953;-86
2024/04/22 00:12:01;;;;;;;;;;;;;;;6.47;100.00;102664.38;5422739;26;19935;-86
2024/04/22 00:14:27;;;;;;;;;;;;;;;6.39;100.00;102664.88;5422741;26;20424;-86
2024/04/22 00:16:52;;;;;;;;;;;;;;;6.31;100.00;102664.53;5453194;26;19928;-87
2024/04/22 00:19:18;;;;;;;;;;;;;;;6.20;100.00;102660.88;5422826;26;19929;-86
2024/04/22 00:21:43;;;;;;;;;;;;;;;6.05;100.00;102663.56;5393035;26;19936;-85
2024/04/22 00:24:09;;;;;;;;;;;;;;;5.96;100.00;102666.84;5422599;26;19935;-86
2024/04/22 00:26:34;;;;;;;;;;;;;;;5.98;100.00;102664.94;5422678;26;19929;-86
2024/04/22 00:29:00;;;;;;;;;;;;;;;5.98;100.00;102666.72;5392960;26;19997;-86
2024/04/22 00:31:25;;;;;;;;;;;;;;;5.91;100.00;102668.94;5422317;26;20363;-85
2024/04/22 00:33:54;;;;;;;;;;;;;;;5.87;100.00;102670.06;5422379;26;19940;-87
2024/04/22 00:36:19;;;;;;;;;;;;;;;5.79;100.00;102667.03;5392801;26;20379;-86
2024/04/22 00:38:48;;;;;;;;;;;;;;;5.76;100.00;102661.88;5452205;26;19936;-85
2024/04/22 00:41:13;;;;;;;;;;;;;;;5.70;100.00;102663.13;5393369;26;19928;-85
2024/04/22 00:43:39;;;;;;;;;;;;;;;5.66;100.00;102667.81;5422249;26;20270;-85
2024/04/22 00:46:04;;;;;;;;;;;;;;;5.64;100.00;102664.38;5422119;26;19935;-85
2024/04/22 00:48:30;;;;;;;;;;;;;;;5.76;100.00;102653.88;5452123;26;19935;-85
2024/04/22 00:50:56;;;;;;;;;;;;;;;5.77;100.00;102658.25;5422200;26;19929;-88
2024/04/22 00:53:21;;;;;;;;;;;;;;;5.68;100.00;102660.56;5392659;26;19933;-88
2024/04/22 00:55:47;;;;;;;;;;;;;;;5.64;100.00;102661.72;5422069;26;19955;-87
2024/04/22 00:58:13;;;;;;;;;;;;;;;5.57;100.00;102664.88;5422359;26;20417;-88
2024/04/22 01:00:39;;;;;;;;;;;;;;;5.59;100.00;102655.81;5422010;26;19928;-87
2024/04/22 01:03:05;;;;;;;;;;;;;;;5.66;100.00;102659.81;5423578;26;19936;-88
2024/04/22 01:05:30;;;;;;;;;;;;;;;5.70;100.00;102655.97;5402129;26;19982;-85
2024/04/22 01:07:56;;;;;;;;;;;;;;;5.79;100.00;102656.34;5417318;26;19928;-87
2024/04/22 01:10:22;;;;;;;;;;;;;;;5.87;100.00;102648.69;5402734;26;19928;-89
2024/04/22 01:12:47;;;;;;;;;;;;;;;5.73;100.00;102653.13;5421827;26;19928;-88
2024/04/22 01:15:13;;;;;;;;;;;;;;;5.74;100.00;102653.97;5451914;26;19935;-88
2024/04/22 01:17:39;;;;;;;;;;;;;;;5.80;100.00;102648.25;5393768;26;19936;-87
2024/04/22 01:20:06;;;;;;;;;;;;;;;5.81;100.00;102649.09;5455648;26;19978;-88
2024/04/22 01:22:31;;;;;;;;;;;;;;;5.68;100.00;102649.88;5395898;26;19935;-88
2024/04/22 01:24:57;;;;;;;;;;;;;;;5.48;100.00;102652.97;5395937;26;19940;-87
2024/04/22 01:27:22;;;;;;;;;;;;;;;5.28;100.00;102657.72;5455177;26;19929;-87
2024/04/22 01:29:47;;;;;;;;;;;;;;;5.10;100.00;102664.19;5425272;26;19936;-87
2024/04/22 01:32:13;;;;;;;;;;;;;;;4.98;100.00;102656.94;5395482;26;19935;-87
2024/04/22 01:34:38;;;;;;;;;;;;;;;4.88;100.00;102659.28;5425121;26;19933;-90
2024/04/22 01:37:04;;;;;;;;;;;;;;;4.97;100.00;102655.22;5425230;26;20379;-87
2024/04/22 01:39:29;;;;;;;;;;;;;;;5.10;100.00;102669.50;5395496;26;19935;-87
2024/04/22 01:41:55;;;;;;;;;;;;;;;5.12;100.00;102656.09;5395333;26;20373;-87
2024/04/22 01:44:21;;;;;;;;;;;;;;;5.11;100.00;102663.25;5425317;26;19928;-87
2024/04/22 01:46:46;;;;;;;;;;;;;;;5.06;100.00;102668.00;5395350;26;19928;-88
2024/04/22 01:49:12;;;;;;;;;;;;;;;5.08;100.00;102666.09;5425424;26;20362;-86
2024/04/22 01:51:39;;;;;;;;;;;;;;;5.07;100.00;102664.38;5424869;26;20370;-87
2024/04/22 01:54:05;;;;;;;;;;;;;;;5.00;100.00;102660.34;5425268;26;19928;-87
2024/04/22 01:56:31;;;;;;;;;;;;;;;5.01;100.00;102659.41;5395114;26;19957;-87
2024/04/22 01:58:57;;;;;;;;;;;;;;;5.10;100.00;102658.84;5424671;26;20250;-88
2024/04/22 02:01:24;;;;;;;;;;;;;;;5.07;100.00;102659.88;5425100;26;20274;-88
2024/04/22 02:03:49;;;;;;;;;;;;;;;5.01;100.00;102664.75;5425636;26;19929;-87
2024/04/22 02:06:15;;;;;;;;;;;;;;;4.91;100.00;102660.91;5424649;26;19936;-88
2024/04/22 02:08:40;;;;;;;;;;;;;;;4.85;100.00;102655.00;5394947;26;19929;-88
2024/04/22 02:11:06;;;;;;;;;;;;;;;4.75;100.00;102653.84;5424954;26;19928;-88
2024/04/22 02:13:31;;;;;;;;;;;;;;;4.72;100.00;102650.50;5425110;26;19928;-87
2024/04/22 02:15:56;;;;;;;;;;;;;;;4.71;100.00;102647.00;5425022;26;19928;-88
2024/04/22 02:18:22;;;;;;;;;;;;;;;4.75;100.00;102643.19;5395519;26;19929;-89
2024/04/22 02:20:48;;;;;;;;;;;;;;;4.77;100.00;102638.63;5425585;26;19928;-88
2024/04/22 02:23:13;;;;;;;;;;;;;;;4.80;100.00;102641.09;5425289;26;20371;-88
2024/04/22 02:25:39;;;;;;;;;;;;;;;4.81;100.00;102641.94;5424699;26;19928;-88
2024/04/22 02:28:05;;;;;;;;;;;;;;;4.72;100.00;102642.50;5394270;26;19928;-88
2024/04/22 02:30:30;;;;;;;;;;;;;;;4.60;100.00;102650.28;5424314;26;20286;-89
2024/04/22 02:32:56;;;;;;;;;;;;;;;4.52;100.00;102651.66;5394738;26;20324;-88
2024/04/22 02:35:21;;;;;;;;;;;;;;;4.48;100.00;102647.50;5394598;26;20011;-87
2024/04/22 02:37:47;;;;;;;;;;;;;;;4.51;100.00;102644.63;5453910;26;19929;-88
2024/04/22 02:40:12;;;;;;;;;;;;;;;4.59;100.00;102642.38;5424162;26;19928;-88
2024/04/22 02:42:38;;;;;;;;;;;;;;;4.60;100.00;102638.75;5454117;26;19928;-88
2024/04/22 02:45:03;;;;;;;;;;;;;;;4.62;100.00;102634.19;5454036;26;19997;-88
2024/04/22 02:47:29;;;;;;;;;;;;;;;4.74;100.00;102641.47;5394566;26;19929;-88
2024/04/22 02:49:55;;;;;;;;;;;;;;;4.86;100.00;102634.53;5394416;26;20373;-88
2024/04/22 02:52:20;;;;;;;;;;;;;;;4.93;100.00;102633.22;5394512;26;19939;-88
2024/04/22 02:54:49;;;;;;;;;;;;;;;4.98;100.00;102632.94;5394242;26;19928;-88
2024/04/22 02:57:15;;;;;;;;;;;;;;;5.06;100.00;102636.00;5424251;26;19936;-88
2024/04/22 02:59:41;;;;;;;;;;;;;;;5.14;100.00;102638.19;5423881;26;20254;-89
2024/04/22 03:02:06;;;;;;;;;;;;;;;5.23;100.00;102622.47;5453834;26;19929;-89
2024/04/22 03:04:32;;;;;;;;;;;;;;;5.35;100.00;102622.69;5424162;26;19928;-88
2024/04/22 03:06:57;;;;;;;;;;;;;;;5.40;100.00;102625.88;5453676;26;19935;-88
2024/04/22 03:09:23;;;;;;;;;;;;;;;5.47;100.00;102629.91;5394196;26;19936;-87
2024/04/22 03:11:48;;;;;;;;;;;;;;;5.53;100.00;102623.31;5394047;26;19928;-87
2024/04/22 03:14:14;;;;;;;;;;;;;;;5.61;100.00;102632.56;5423717;26;20313;-87
2024/04/22 03:16:39;;;;;;;;;;;;;;;5.67;100.00;102623.31;5423627;26;20270;-87
2024/04/22 03:19:05;;;;;;;;;;;;;;;5.67;100.00;102629.50;5424206;26;19928;-88
2024/04/22 03:21:30;;;;;;;;;;;;;;;5.66;100.00;102633.13;5456690;26;19935;-88
2024/04/22 03:23:56;;;;;;;;;;;;;;;5.58;100.00;102635.41;5444090;26;19921;-88
2024/04/22 03:26:21;;;;;;;;;;;;;;;5.46;100.00;102630.84;5418201;26;20223;-88
2024/04/22 03:28:47;;;;;;;;;;;;;;;5.52;100.00;102638.47;5394223;26;19929;-88
2024/04/22 03:31:12;;;;;;;;;;;;;;;5.48;100.00;102639.63;5423520;26;19929;-88
2024/04/22 03:33:38;;;;;;;;;;;;;;;5.55;100.00;102648.94;5423633;26;19940;-88
2024/04/22 03:36:03;;;;;;;;;;;;;;;5.55;100.00;102640.94;5394003;26;20061;-88
2024/04/22 03:38:29;;;;;;;;;;;;;;;5.54;100.00;102641.06;5393813;26;19934;-88
2024/04/22 03:40:54;;;;;;;;;;;;;;;5.53;100.00;102640.19;5392496;26;19928;-88
2024/04/22 03:43:20;;;;;;;;;;;;;;;5.51;100.00;102642.94;5394756;26;20359;-91
2024/04/22 03:49:50;;;;;;;;;;;;;;;5.56;100.00;102639.13;5395475;26;19936;-89
2024/04/22 03:51:15;;;;;;;;;;;;;;;5.45;100.00;102640.69;5454612;26;19929;-89
2024/04/22 03:53:40;;;;;;;;;;;;;;;5.46;100.00;102636.19;5423146;26;20005;-89
2024/04/22 03:56:06;;;;;;;;;;;;;;;5.48;100.00;102636.97;5393504;26;19929;-88
2024/04/22 03:58:32;;;;;;;;;;;;;;;5.51;100.00;102639.44;5393451;26;19928;-89
2024/04/22 04:00:57;;;;;;;;;;;;;;;5.60;100.00;102638.84;5453289;26;19928;-90
2024/04/22 04:03:23;;;;;;;;;;;;;;;5.69;100.00;102642.75;5423088;26;19928;-88
2024/04/22 04:05:48;;;;;;;;;;;;;;;5.77;100.00;102643.13;5423136;26;19929;-87
2024/04/22 04:08:14;;;;;;;;;;;;;;;5.81;100.00;102646.44;5423342;26;19935;-89
2024/04/22 04:10:39;;;;;;;;;;;;;;;5.78;100.00;102643.97;5393493;26;19936;-88
2024/04/22 04:13:05;;;;;;;;;;;;;;;5.72;100.00;102648.75;5422741;26;19936;-88
2024/04/22 04:15:32;;;;;;;;;;;;;;;5.73;100.00;102641.59;5422882;26;19929;-89
2024/04/22 04:17:58;;;;;;;;;;;;;;;5.69;100.00;102638.28;5393394;26;19937;-89
2024/04/22 04:20:23;;;;;;;;;;;;;;;5.71;100.00;102643.50;5422888;26;19928;-88
2024/04/22 04:22:49;;;;;;;;;;;;;;;5.71;100.00;102641.66;5452621;26;19941;-89
2024/04/22 04:25:14;;;;;;;;;;;;;;;5.70;100.00;102642.63;5393159;26;20375;-89
2024/04/22 04:27:40;;;;;;;;;;;;;;;5.64;100.00;102635.03;5393095;26;19929;-89
2024/04/22 04:30:05;;;;;;;;;;;;;;;5.61;100.00;102632.56;5422654;26;19944;-88
2024/04/22 04:32:31;;;;;;;;;;;;;;;5.66;100.00;102641.13;5393040;26;19961;-87
2024/04/22 04:34:56;;;;;;;;;;;;;;;5.72;100.00;102631.88;5392946;26;19928;-86
2024/04/22 04:37:22;;;;;;;;;;;;;;;5.77;100.00;102637.78;5392960;26;19929;-86
2024/04/22 04:39:47;;;;;;;;;;;;;;;5.79;100.00;102632.31;5393063;26;19932;-90
2024/04/22 04:42:13;;;;;;;;;;;;;;;5.70;100.00;102639.13;5422247;26;20260;-89
2024/04/22 04:44:38;;;;;;;;;;;;;;;5.61;100.00;102637.91;5422350;26;19932;-89
2024/04/22 04:47:04;;;;;;;;;;;;;;;5.57;100.00;102639.03;5393099;26;20367;-88
2024/04/22 04:49:29;;;;;;;;;;;;;;;5.51;100.00;102631.44;5422100;26;19936;-88
2024/04/22 04:51:55;;;;;;;;;;;;;;;5.42;100.00;102643.50;5424255;26;20409;-88
2024/04/22 04:54:21;;;;;;;;;;;;;;;5.34;100.00;102635.13;5425735;26;19928;-88
2024/04/22 04:56:46;;;;;;;;;;;;;;;5.24;100.00;102634.88;5425827;26;19929;-88
2024/04/22 04:59:12;;;;;;;;;;;;;;;5.21;100.00;102639.53;5425415;26;19928;-88
2024/04/22 05:01:37;;;;;;;;;;;;;;;5.06;100.00;102639.53;5455683;26;19952;-88
2024/04/22 05:04:03;;;;;;;;;;;;;;;4.91;100.00;102640.44;5395905;26;20001;-87
2024/04/22 05:06:29;;;;;;;;;;;;;;;4.92;100.00;102643.97;5455584;26;19929;-88
2024/04/22 05:08:54;;;;;;;;;;;;;;;4.93;100.00;102640.38;5425517;26;19928;-88
2024/04/22 05:11:20;;;;;;;;;;;;;;;4.93;100.00;102643.03;5425667;26;19936;-87
2024/04/22 05:13:45;;;;;;;;;;;;;;;4.89;100.00;102649.47;5425631;26;19936;-87
2024/04/22 05:16:11;;;;;;;;;;;;;;;4.87;100.00;102646.03;5425420;26;20376;-88
2024/04/22 05:18:37;;;;;;;;;;;;;;;4.79;100.00;102650.06;5395763;26;19928;-89
2024/04/22 05:21:02;;;;;;;;;;;;;;;4.74;100.00;102656.63;5425391;26;19933;-88
2024/04/22 05:23:28;;;;;;;;;;;;;;;4.74;100.00;102654.78;5395629;26;19932;-88
2024/04/22 05:25:53;;;;;;;;;;;;;;;4.81;100.00;102650.78;5395661;26;19928;-88
2024/04/22 05:28:21;;;;;;;;;;;;;;;4.94;100.00;102650.06;5425078;26;19929;-88
2024/04/22 05:30:47;;;;;;;;;;;;;;;4.94;100.00;102647.41;5425885;26;19937;-88
2024/04/22 05:36:09;;;;;;;;;;;;;;;4.83;100.00;102654.22;5456333;26;19929;-88
2024/04/22 05:38:34;;;;;;;;;;;;;;;4.77;100.00;102657.28;5402738;26;19928;-87
2024/04/22 05:41:00;;;;;;;;;;;;;;;4.72;100.00;102656.69;5479726;26;19921;-88
2024/04/22 05:43:25;;;;;;;;;;;;;;;4.85;100.00;102655.00;5450429;26;19920;-89
2024/04/22 05:45:51;;;;;;;;;;;;;;;4.95;100.00;102657.09;5432313;26;20343;-89
2024/04/22 05:48:16;;;;;;;;;;;;;;;5.04;100.00;102651.22;5395939;26;19935;-88
2024/04/22 05:50:42;;;;;;;;;;;;;;;5.15;100.00;102651.41;5427076;26;19935;-88
2024/04/22 05:53:07;;;;;;;;;;;;;;;5.20;100.00;102644.00;5425066;26;20348;-88
2024/04/22 05:55:33;;;;;;;;;;;;;;;5.23;100.00;102646.47;5424895;26;20443;-87
2024/04/22 05:57:59;;;;;;;;;;;;;;;5.28;100.00;102652.38;5425016;26;19929;-89
2024/04/22 06:00:24;;;;;;;;;;;;;;;5.36;100.00;102651.06;5424784;26;19929;-88
2024/04/22 06:02:50;;;;;;;;;;;;;;;5.54;100.00;102643.72;5423956;26;19937;-88
2024/04/22 06:05:15;;;;;;;;;;;;;;;5.75;100.00;102650.38;5394964;26;19928;-88
2024/04/22 06:07:41;;;;;;;;;;;;;;;5.94;100.00;102650.06;5394989;26;19928;-88
2024/04/22 06:10:06;;;;;;;;;;;;;;;6.14;100.00;102649.63;5395146;26;19928;-88
2024/04/22 06:12:32;;;;;;;;;;;;;;;6.28;100.00;102653.22;5395403;26;19929;-88
2024/04/22 06:14:57;;;;;;;;;;;;;;;6.39;100.00;102650.66;5395056;26;19935;-89
2024/04/22 06:17:23;;;;;;;;;;;;;;;6.48;100.00;102644.69;5424601;26;20351;-90
2024/04/22 06:19:49;;;;;;;;;;;;;;;6.66;100.00;102647.97;5424965;26;19929;-88
2024/04/22 06:22:16;;;;;;;;;;;;;;;6.78;100.00;102644.47;5394861;26;19940;-88
2024/04/22 06:24:42;;;;;;;;;;;;;;;7.03;100.00;102651.63;5425143;26;19933;-88
2024/04/22 06:27:08;;;;;;;;;;;;;;;7.14;100.00;102658.06;5454949;26;19932;-89
2024/04/22 06:29:33;;;;;;;;;;;;;;;7.30;100.00;102655.16;5424628;26;19929;-89
2024/04/22 06:31:59;;;;;;;;;;;;;;;7.52;100.00;102654.53;5424459;26;19935;-88
2024/04/22 06:34:24;;;;;;;;;;;;;;;7.73;100.00;102658.34;5424863;26;19935;-89
2024/04/22 06:36:50;;;;;;;;;;;;;;;7.90;100.00;102659.78;5424227;26;19929;-89
2024/04/22 06:39:16;;;;;;;;;;;;;;;8.09;100.00;102668.19;5394676;26;20260;-88
2024/04/22 06:41:42;;;;;;;;;;;;;;;8.32;100.00;102671.84;5424650;26;19936;-89
2024/04/22 06:44:08;;;;;;;;;;;;;;;8.46;100.00;102668.16;5424153;26;19932;-89
2024/04/22 06:46:33;;;;;;;;;;;;;;;8.49;100.00;102669.75;5394916;26;19997;-89
2024/04/22 06:48:59;;;;;;;;;;;;;;;8.77;100.00;102668.53;5395608;26;19935;-89
2024/04/22 06:51:24;;;;;;;;;;;;;;;8.97;100.00;102661.59;5395858;26;20355;-90
2024/04/22 06:53:50;;;;;;;;;;;;;;;9.13;100.00;102669.31;5457919;26;20019;-90
2024/04/22 06:56:15;;;;;;;;;;;;;;;9.50;100.00;102670.00;5428421;26;19929;-89
2024/04/22 06:58:41;;;;;;;;;;;;;;;10.03;100.00;102658.56;5428165;26;19928;-89
2024/04/22 07:01:06;;;;;;;;;;;;;;;9.69;100.00;102662.16;5445071;26;19921;-90
2024/04/22 07:03:32;;;;;;;;;;;;;;;9.49;100.00;102659.34;5428211;26;19928;-90
2024/04/22 07:05:58;;;;;;;;;;;;;;;9.24;100.00;102664.84;5424291;26;20005;-89
2024/04/22 07:08:23;;;;;;;;;;;;;;;9.40;100.00;102664.50;5424325;26;20357;-89
2024/04/22 07:10:49;;;;;;;;;;;;;;;10.02;100.00;102667.59;5394712;26;20242;-89
2024/04/22 07:13:14;;;;;;;;;;;;;;;10.67;100.00;102660.47;5394865;26;20019;-91
2024/04/22 07:15:40;;;;;;;;;;;;;;;11.11;100.00;102662.00;5394354;26;19929;-89
2024/04/22 07:18:05;;;;;;;;;;;;;;;11.75;100.00;102657.34;5394802;26;19934;-87
2024/04/22 07:20:31;;;;;;;;;;;;;;;12.45;100.00;102652.81;5423978;26;19928;-88
2024/04/22 07:22:56;;;;;;;;;;;;;;;13.20;100.00;102656.53;5453658;26;19929;-88
2024/04/22 07:25:22;;;;;;;;;;;;;;;14.07;100.00;102647.19;5424178;26;19936;-86
2024/04/22 07:27:48;;;;;;;;;;;;;;;14.60;100.00;102654.50;5454133;26;19935;-87
2024/04/22 07:30:13;;;;;;;;;;;;;;;14.48;100.00;102655.72;5423742;26;19928;-87
2024/04/22 07:32:39;;;;;;;;;;;;;;;15.15;100.00;102656.09;5423994;26;19936;-86
2024/04/22 07:35:05;;;;;;;;;;;;;;;14.77;100.00;102655.50;5423239;26;19939;-87
2024/04/22 07:37:36;;;;;;;;;;;;;;;15.02;100.00;102652.97;5423686;26;19937;-89
2024/04/22 07:40:17;;;;;;;;;;;;;;;15.77;100.00;102654.06;5393408;26;19929;-88
2024/04/22 07:42:45;;;;;;;;;;;;;;;16.17;100.00;102647.06;5423347;26;20355;-81
2024/04/22 07:45:10;;;;;;;;;;;;;;;16.64;100.00;102656.41;5392927;26;19929;-81
2024/04/22 07:47:36;;;;;;;;;;;;;;;17.18;100.00;102655.91;5393568;26;19932;-81
2024/04/22 07:50:02;;;;;;;;;;;;;;;17.42;100.00;102650.41;5423484;26;20252;-82
2024/04/22 07:52:28;;;;;;;;;;;;;;;17.04;100.00;102652.00;5423079;26;19928;-82
2024/04/22 07:54:56;;;;;;;;;;;;;;;17.00;100.00;102646.06;5452891;26;19928;-81
2024/04/22 07:57:21;;;;;;;;;;;;;;;17.79;100.00;102646.19;5393122;26;19929;-81
2024/04/22 07:59:47;;;;;;;;;;;;;;;18.12;100.00;102646.00;5393066;26;19997;-81
2024/04/22 08:02:12;;;;;;;;;;;;;;;19.03;100.00;102647.00;5423031;26;19997;-81
2024/04/22 08:04:38;;;;;;;;;;;;;;;19.21;100.00;102657.53;5452984;26;20262;-82
2024/04/22 08:07:04;;;;;;;;;;;;;;;19.50;100.00;102651.22;5393447;26;19940;-80
2024/04/22 08:09:29;;;;;;;;;;;;;;;19.72;100.00;102658.50;5455909;26;19929;-80
2024/04/22 08:11:55;;;;;;;;;;;;;;;19.77;100.00;102658.78;5431427;26;19929;-80
2024/04/22 08:14:21;;;;;;;;;;;;;;;19.84;100.00;102658.84;5433542;26;20311;-80
2024/04/22 08:16:46;;;;;;;;;;;;;;;20.08;95.51;102660.38;5403747;26;19928;-81
2024/04/22 08:19:12;;;;;;;;;;;;;;;20.06;90.70;102661.63;5406159;26;19929;-81
2024/04/22 08:21:37;;;;;;;;;;;;;;;20.26;91.47;102654.50;5423162;26;19929;-82
2024/04/22 08:24:03;;;;;;;;;;;;;;;20.56;88.77;102655.25;5452600;26;19936;-81
2024/04/22 08:26:28;;;;;;;;;;;;;;;21.19;84.83;102657.22;5451723;26;19944;-81
2024/04/22 08:28:54;;;;;;;;;;;;;;;21.66;79.54;102652.88;5393130;26;19929;-81
2024/04/22 08:31:19;;;;;;;;;;;;;;;21.43;76.38;102644.97;5452253;26;19936;-81
2024/04/22 08:33:45;;;;;;;;;;;;;;;21.24;74.76;102643.78;5422294;26;19965;-81
2024/04/22 08:36:10;;;;;;;;;;;;;;;21.07;75.82;102643.25;5422623;26;19941;-82
2024/04/22 08:38:36;;;;;;;;;;;;;;;21.29;73.68;102649.50;5422383;26;19928;-81
2024/04/22 08:41:02;;;;;;;;;;;;;;;21.64;72.76;102649.50;5452223;26;20371;-81
2024/04/22 08:43:27;;;;;;;;;;;;;;;21.93;69.10;102637.38;5392608;26;19928;-82
2024/04/22 08:45:53;;;;;;;;;;;;;;;21.75;67.34;102646.16;5421976;26;19929;-82
2024/04/22 08:48:18;;;;;;;;;;;;;;;21.53;66.47;102650.91;5392495;26;19997;-82
2024/04/22 08:50:44;;;;;;;;;;;;;;;21.36;66.93;102655.84;5452026;26;20260;-82
2024/04/22 08:53:10;;;;;;;;;;;;;;;21.89;66.17;102636.97;5392485;26;19997;-82
2024/04/22 08:55:35;;;;;;;;;;;;;;;22.52;62.30;102641.31;5421981;26;20368;-81
2024/04/22 08:58:02;;;;;;;;;;;;;;;22.36;60.84;102639.81;5392714;26;19935;-81
2024/04/22 09:00:27;;;;;;;;;;;;;;;22.07;60.12;102632.78;5392143;26;20007;-81
2024/04/22 09:02:53;;;;;;;;;;;;;;;22.33;59.40;102634.75;5451680;26;19945;-81
2024/04/22 09:05:19;;;;;;;;;;;;;;;22.81;58.03;102626.34;5422095;26;19940;-82
2024/04/22 09:07:50;;;;;;;;;;;;;;;22.73;56.87;102627.44;5392646;26;19929;-82
2024/04/22 09:10:16;;;;;;;;;;;;;;;23.07;55.35;102627.41;5451629;26;20274;-82
2024/04/22 09:12:41;;;;;;;;;;;;;;;23.29;53.59;102634.34;5451749;26;19957;-82
2024/04/22 09:15:07;;;;;;;;;;;;;;;23.39;52.57;102628.38;5422036;26;19951;-82
2024/04/22 09:17:32;;;;;;;;;;;;;;;23.81;50.45;102623.38;5421730;26;20243;-82
2024/04/22 09:20:00;;;;;;;;;;;;;;;24.04;48.57;102620.09;5451564;26;19936;-82
2024/04/22 09:22:26;;;;;;;;;;;;;;;24.03;47.29;102624.75;5392251;26;19928;-82
2024/04/22 09:24:51;;;;;;;;;;;;;;;23.76;47.19;102623.19;5422048;26;20312;-82
2024/04/22 09:27:17;;;;;;;;;;;;;;;23.45;48.00;102613.81;5423699;26;19940;-82
2024/04/22 09:29:43;;;;;;;;;;;;;;;23.33;45.92;102610.88;5439127;26;19944;-82
2024/04/22 09:32:12;;;;;;;;;;;;;;;23.19;45.00;102615.56;5463049;26;19928;-82
2024/04/22 09:34:39;;;;;;;;;;;;;;;22.39;45.01;102612.88;5391993;26;19928;-81
2024/04/22 09:37:04;;;;;;;;;;;;;;;22.06;45.03;102617.41;5421352;26;19928;-83
2024/04/22 09:39:30;;;;;;;;;;;;;;;21.84;46.92;102620.31;5454627;26;19936;-82
2024/04/22 09:41:55;;;;;;;;;;;;;;;21.34;47.45;102616.91;5425057;26;20363;-83
2024/04/22 09:44:21;;;;;;;;;;;;;;;21.46;47.35;102612.59;5395483;26;19941;-81
2024/04/22 09:46:47;;;;;;;;;;;;;;;21.40;47.65;102615.28;5454953;26;19936;-82
2024/04/22 09:49:12;;;;;;;;;;;;;;;21.05;47.44;102596.94;5424905;26;20007;-83
2024/04/22 09:51:38;;;;;;;;;;;;;;;21.06;48.29;102606.88;5424758;26;19973;-82
2024/04/22 09:54:03;;;;;;;;;;;;;;;21.23;47.25;102606.53;5424778;26;19928;-82
2024/04/22 09:56:30;;;;;;;;;;;;;;;21.20;47.27;102604.22;5395128;26;19944;-82
2024/04/22 09:58:56;;;;;;;;;;;;;;;21.51;48.24;102601.88;5424692;26;19937;-82
2024/04/22 10:01:21;;;;;;;;;;;;;;;21.66;46.13;102590.75;5424852;26;19997;-82
2024/04/22 10:03:47;;;;;;;;;;;;;;;21.62;46.84;102591.34;5454680;26;19933;-82
2024/04/22 10:06:12;;;;;;;;;;;;;;;21.88;46.99;102593.34;5395298;26;19928;-83
2024/04/22 10:08:38;;;;;;;;;;;;;;;21.70;45.13;102588.47;5395349;26;20363;-82
2024/04/22 10:11:07;;;;;;;;;;;;;;;21.56;45.59;102589.44;5431817;26;19928;-82
2024/04/22 10:13:32;;;;;;;;;;;;;;;21.60;46.66;102582.53;5446715;26;19978;-82
2024/04/22 10:15:58;;;;;;;;;;;;;;;21.47;45.33;102586.06;5430297;26;19936;-81
2024/04/22 10:18:23;;;;;;;;;;;;;;;21.17;46.49;102583.56;5394808;26;19928;-82
2024/04/22 10:20:48;;;;;;;;;;;;;;;21.33;46.54;102589.72;5395127;26;20352;-81
2024/04/22 10:23:14;;;;;;;;;;;;;;;21.42;45.23;102581.19;5424525;26;19990;-81
2024/04/22 10:25:40;;;;;;;;;;;;;;;21.42;44.97;102589.38;5424816;26;20289;-82
2024/04/22 10:28:06;;;;;;;;;;;;;;;20.57;44.67;102582.31;5394630;26;20271;-82
2024/04/22 10:30:32;;;;;;;;;;;;;;;20.49;46.06;102585.16;5458943;26;19974;-81
2024/04/22 10:32:57;;;;;;;;;;;;;;;20.80;46.03;102582.06;5475298;26;19974;-81
2024/04/22 10:35:22;;;;;;;;;;;;;;;21.18;44.92;102582.50;5406173;26;19940;-82
2024/04/22 10:37:48;;;;;;;;;;;;;;;21.80;45.24;102582.56;5394664;26;19928;-82
2024/04/22 10:40:13;;;;;;;;;;;;;;;22.14;44.31;102565.16;5424208;26;20252;-83
2024/04/22 10:42:39;;;;;;;;;;;;;;;22.25;45.18;102574.69;5424132;26;19937;-82
2024/04/22 10:45:05;;;;;;;;;;;;;;;22.28;43.60;102563.28;5453984;26;19935;-82
2024/04/22 10:47:30;;;;;;;;;;;;;;;21.86;44.64;102566.19;5394884;26;19980;-82
2024/04/22 10:49:56;;;;;;;;;;;;;;;21.65;45.29;102563.59;5453639;26;20356;-83
2024/04/22 10:52:23;;;;;;;;;;;;;;;21.84;45.67;102556.47;5394420;26;19935;-83
2024/04/22 10:54:48;;;;;;;;;;;;;;;21.66;45.20;102555.16;5453929;26;19940;-83
2024/04/22 10:57:14;;;;;;;;;;;;;;;21.75;45.82;102555.81;5424045;26;20387;-83
2024/04/22 10:59:39;;;;;;;;;;;;;;;21.78;45.12;102552.69;5453850;26;19940;-83
2024/04/22 11:02:05;;;;;;;;;;;;;;;21.48;44.64;102557.63;5424030;26;19997;-83
2024/04/22 11:04:31;;;;;;;;;;;;;;;21.17;45.01;102560.81;5454023;26;19935;-82
2024/04/22 11:06:57;;;;;;;;;;;;;;;20.96;46.26;102564.50;5423837;26;19936;-82
2024/04/22 11:09:22;;;;;;;;;;;;;;;21.04;46.11;102569.81;5394429;26;19929;-82
2024/04/22 11:11:47;;;;;;;;;;;;;;;21.03;47.74;102560.75;5453688;26;20320;-82
2024/04/22 11:14:13;;;;;;;;;;;;;;;21.30;47.18;102567.22;5423543;26;19929;-82
2024/04/22 11:16:38;;;;;;;;;;;;;;;21.20;46.59;102568.63;5393922;26;19928;-84
2024/04/22 11:19:05;;;;;;;;;;;;;;;21.37;46.68;102559.03;5423588;26;20371;-81
2024/04/22 11:21:32;;;;;;;;;;;;;;;21.34;47.17;102550.38;5453886;26;19929;-82
2024/04/22 11:23:57;;;;;;;;;;;;;;;21.21;46.87;102557.47;5453811;26;19936;-82
2024/04/22 11:26:23;;;;;;;;;;;;;;;21.16;47.93;102564.59;5423382;26;19929;-82
2024/04/22 11:28:52;;;;;;;;;;;;;;;21.15;47.54;102557.47;5423540;26;19928;-82
2024/04/22 11:31:21;;;;;;;;;;;;;;;21.12;47.58;102564.19;5453907;26;19940;-82
2024/04/22 11:33:47;;;;;;;;;;;;;;;21.00;47.98;102558.41;5424004;26;19928;-83
2024/04/22 11:36:12;;;;;;;;;;;;;;;21.00;47.37;102557.56;5423547;26;19954;-82
2024/04/22 11:38:38;;;;;;;;;;;;;;;20.88;47.81;102553.69;5393507;26;19936;-82
2024/04/22 11:41:03;;;;;;;;;;;;;;;20.80;48.10;102552.84;5393934;26;19978;-82
2024/04/22 11:43:29;;;;;;;;;;;;;;;21.00;47.95;102561.16;5423535;26;19969;-82
2024/04/22 11:45:54;;;;;;;;;;;;;;;21.01;47.63;102545.59;5453134;26;19935;-81
2024/04/22 11:48:20;;;;;;;;;;;;;;;20.84;48.37;102556.00;5423478;26;19936;-82
2024/04/22 11:50:45;;;;;;;;;;;;;;;21.32;48.81;102547.84;5423429;26;20355;-82
2024/04/22 11:53:11;;;;;;;;;;;;;;;21.44;47.95;102543.50;5423066;26;20028;-82
2024/04/22 11:55:36;;;;;;;;;;;;;;;21.72;46.00;102542.53;5453048;26;19940;-81
2024/04/22 11:58:02;;;;;;;;;;;;;;;21.74;45.90;102543.19;5452987;26;19929;-83
2024/04/22 12:00:27;;;;;;;;;;;;;;;21.74;45.90;102543.19;5392305;26;20312;-82
2024/04/22 12:02:53;;;;;;;;;;;;;;;21.61;47.32;102543.16;5422866;26;19929;-82
2024/04/22 12:05:18;;;;;;;;;;;;;;;20.83;49.00;102551.59;5423225;26;19955;-82
2024/04/22 12:07:44;;;;;;;;;;;;;;;20.31;48.20;102548.22;5422866;26;19982;-82
2024/04/22 12:10:09;;;;;;;;;;;;;;;20.31;49.23;102544.66;5422836;26;19929;-82
2024/04/22 12:12:35;;;;;;;;;;;;;;;20.46;48.11;102536.38;5393244;26;19936;-82
2024/04/22 12:15:00;;;;;;;;;;;;;;;20.56;48.74;102535.03;5423468;26;19977;-82
2024/04/22 12:17:26;;;;;;;;;;;;;;;20.83;47.40;102540.66;5422682;26;19929;-83
2024/04/22 12:19:52;;;;;;;;;;;;;;;20.73;48.18;102540.16;5452592;26;19929;-82
2024/04/22 12:22:22;;;;;;;;;;;;;;;21.10;48.55;102538.06;5393275;26;20717;-82
2024/04/22 12:24:50;;;;;;;;;;;;;;;21.15;47.70;102533.69;5423292;26;20264;-82
2024/04/22 12:27:15;;;;;;;;;;;;;;;20.37;47.16;102532.91;5422571;26;19928;-81
2024/04/22 12:29:41;;;;;;;;;;;;;;;20.51;48.69;102532.00;5422361;26;19929;-81
2024/04/22 12:32:06;;;;;;;;;;;;;;;20.98;48.91;102529.59;5422989;26;19940;-82
2024/04/22 12:34:32;;;;;;;;;;;;;;;20.16;49.62;102531.94;5422391;26;19973;-82